Archival Weather

General Ignacio P Garcia Intl

General Ignacio P Garcia Intl, Mexico (MMHO)

Report from: Wednesday, September 20, 2023 3:40 AM CST
Current time: Wednesday, April 24, 2024 1:38 PM CST

Current weather – Weather history – Daily summaries
Weather forecast

Temperature26.0°C (78.8°F)
Dew point25.0°C (77.0°F)
Winds Calm
Visibility8 mi. (12.9 km)
Clouds Sky clear
Altimeter29.83 in.Hg (1010 mB)
Relative humidity94 %
Density altitude1,798 ft. (548 m)
Flight conditions Visual Meteorological Conditions
Raw dataMMHO 200940Z 00000KT 8SM SKC 26/25 A2983 RMK HZY
An error has occurred. This application may no longer respond until reloaded. Reload 🗙